Time;durP1;ratioP1;P1;durP2;ratioP2;P2;SDS_P1;SDS_P2;PMS_P1;PMS_P2;Temp;Humidity;BMP_temperature;BMP_pressure;BME280_temperature;BME280_humidity;BME280_pressure;Samples;Min_cycle;Max_cycle;Signal;HPM_P1;HPM_P2
2022/04/19 00:00:42;;;;;;;11.05;6.95;;;6.50;68.90;;;;;;5030151;28;20030;-65
2022/04/19 00:03:08;;;;;;;12.23;7.00;;;6.50;69.00;;;;;;5041089;28;20076;-65
2022/04/19 00:05:35;;;;;;;8.48;6.68;;;6.50;68.60;;;;;;5034705;28;20504;-65
2022/04/19 00:08:06;;;;;;;10.23;6.70;;;6.40;68.80;;;;;;5033446;28;20392;-65
2022/04/19 00:10:32;;;;;;;9.30;6.25;;;6.40;68.70;;;;;;5033617;28;20072;-65
2022/04/19 00:13:01;;;;;;;10.35;6.78;;;6.30;69.00;;;;;;5033007;28;20135;-65
2022/04/19 00:15:28;;;;;;;10.15;7.47;;;6.30;68.80;;;;;;5040767;28;20152;-65
2022/04/19 00:18:04;;;;;;;11.75;6.80;;;6.30;69.10;;;;;;5040425;28;20091;-65
2022/04/19 00:20:30;;;;;;;10.68;7.18;;;6.30;69.00;;;;;;5030384;28;20033;-66
2022/04/19 00:22:57;;;;;;;10.55;6.80;;;6.20;69.80;;;;;;5038965;28;20037;-65
2022/04/19 00:25:23;;;;;;;12.00;6.53;;;6.20;68.90;;;;;;5045616;28;20041;-65
2022/04/19 00:27:49;;;;;;;11.27;7.25;;;6.10;69.30;;;;;;5038111;28;20041;-65
2022/04/19 00:30:15;;;;;;;10.90;6.88;;;6.00;69.50;;;;;;5047474;28;20033;-65
2022/04/19 00:32:41;;;;;;;10.07;7.32;;;6.00;69.80;;;;;;5044071;28;20045;-66
2022/04/19 00:35:09;;;;;;;13.05;7.43;;;6.00;70.50;;;;;;5036309;28;20045;-66
2022/04/19 00:37:35;;;;;;;9.30;6.75;;;6.00;69.70;;;;;;5045373;28;20174;-65
2022/04/19 00:40:05;;;;;;;11.07;7.30;;;6.00;69.90;;;;;;5032942;28;20033;-64
2022/04/19 00:42:31;;;;;;;10.48;6.97;;;5.90;70.00;;;;;;5043330;28;20076;-65
2022/04/19 00:44:58;;;;;;;11.50;7.22;;;5.90;70.00;;;;;;5037200;28;20049;-65
2022/04/19 00:47:25;;;;;;;11.23;7.43;;;5.90;69.90;;;;;;5059591;28;20033;-64
2022/04/19 00:49:51;;;;;;;10.15;7.30;;;5.80;70.30;;;;;;5020666;28;20053;-66
2022/04/19 00:52:18;;;;;;;10.80;7.70;;;5.80;70.20;;;;;;5040923;28;20777;-65
2022/04/19 00:54:44;;;;;;;9.57;7.18;;;5.80;71.30;;;;;;5050250;28;20076;-65
2022/04/19 00:57:11;;;;;;;12.63;7.88;;;5.80;70.60;;;;;;5043030;28;20196;-65
2022/04/19 00:59:37;;;;;;;10.05;7.70;;;5.80;71.00;;;;;;5046879;28;20045;-64
2022/04/19 01:02:03;;;;;;;12.98;7.03;;;5.70;70.80;;;;;;5037861;28;20082;-66
2022/04/19 01:04:29;;;;;;;9.93;7.57;;;5.60;71.30;;;;;;5040709;28;20045;-64
2022/04/19 01:06:56;;;;;;;11.40;7.00;;;5.60;71.00;;;;;;5041430;28;20049;-65
2022/04/19 01:09:23;;;;;;;10.70;7.53;;;5.70;71.50;;;;;;5042389;28;20384;-67
2022/04/19 01:14:35;;;;;;;10.23;7.07;;;5.60;71.20;;;;;;5045085;28;20044;-64
2022/04/19 01:17:01;;;;;;;11.85;7.18;;;5.60;71.40;;;;;;5039299;28;20124;-67
2022/04/19 01:19:27;;;;;;;10.77;7.38;;;5.50;71.60;;;;;;5038212;28;20120;-66
2022/04/19 01:21:57;;;;;;;10.18;6.82;;;5.50;72.00;;;;;;5040125;28;20116;-65
2022/04/19 01:24:23;;;;;;;8.57;6.00;;;5.50;72.20;;;;;;5043797;28;20114;-66
2022/04/19 01:26:53;;;;;;;8.43;6.43;;;5.50;72.70;;;;;;5039694;28;20041;-65
2022/04/19 01:29:18;;;;;;;11.75;6.65;;;5.50;73.20;;;;;;5041093;28;20045;-65
2022/04/19 01:31:45;;;;;;;10.68;6.80;;;5.50;73.00;;;;;;5038992;28;20492;-64
2022/04/19 01:34:11;;;;;;;11.05;7.20;;;5.50;72.90;;;;;;5032765;28;20492;-64
2022/04/19 01:36:38;;;;;;;10.55;6.78;;;5.50;73.90;;;;;;5044114;28;20029;-65
2022/04/19 01:39:13;;;;;;;11.02;7.13;;;5.40;74.50;;;;;;5044892;28;20048;-64
2022/04/19 01:41:39;;;;;;;10.77;7.15;;;5.40;74.90;;;;;;5055692;28;20044;-64
2022/04/19 01:44:07;;;;;;;11.43;7.13;;;5.40;74.40;;;;;;5038524;28;20029;-67
2022/04/19 01:46:33;;;;;;;11.27;7.50;;;5.40;75.40;;;;;;5042396;28;20053;-65
2022/04/19 01:49:01;;;;;;;9.38;7.55;;;5.40;74.70;;;;;;5049159;28;20057;-64
2022/04/19 01:51:26;;;;;;;9.93;7.00;;;5.40;75.70;;;;;;5039186;28;20052;-64
2022/04/19 01:53:55;;;;;;;12.65;7.68;;;5.30;74.70;;;;;;5028600;28;22081;-64
2022/04/19 01:56:21;;;;;;;12.95;7.55;;;5.40;74.50;;;;;;5037485;28;20393;-65
2022/04/19 01:58:46;;;;;;;12.43;7.72;;;5.30;74.30;;;;;;5041103;28;20045;-65
2022/04/19 02:01:12;;;;;;;11.73;7.55;;;5.20;74.30;;;;;;5042463;28;20142;-64
2022/04/19 02:03:37;;;;;;;13.93;8.02;;;5.20;74.60;;;;;;5044241;28;20033;-65
2022/04/19 02:06:11;;;;;;;12.82;8.20;;;5.20;75.40;;;;;;5039912;28;20412;-66
2022/04/19 02:08:38;;;;;;;10.98;7.20;;;5.20;75.40;;;;;;5041312;28;21837;-66
2022/04/19 02:11:04;;;;;;;12.30;8.05;;;5.20;75.20;;;;;;5039222;28;20680;-65
2022/04/19 02:13:31;;;;;;;12.13;7.75;;;5.20;75.30;;;;;;5044281;28;20045;-64
2022/04/19 02:15:58;;;;;;;11.52;7.75;;;5.10;75.30;;;;;;5044902;28;20037;-66
2022/04/19 02:18:26;;;;;;;13.68;7.90;;;5.10;75.40;;;;;;5043007;28;20045;-65
2022/04/19 02:20:52;;;;;;;18.60;8.15;;;5.00;75.20;;;;;;5044949;28;20042;-65
2022/04/19 02:23:18;;;;;;;14.30;8.75;;;4.90;75.20;;;;;;5044732;28;20033;-65
2022/04/19 02:25:46;;;;;;;13.93;8.27;;;4.90;75.60;;;;;;5037801;28;20037;-65
2022/04/19 02:28:12;;;;;;;11.85;8.13;;;4.90;75.90;;;;;;5032989;28;20044;-64
2022/04/19 02:30:38;;;;;;;12.90;8.50;;;4.80;76.00;;;;;;5044766;28;20457;-64
2022/04/19 02:33:03;;;;;;;12.82;8.82;;;4.80;76.10;;;;;;5043889;28;20033;-66
2022/04/19 02:35:31;;;;;;;13.60;9.68;;;4.80;76.30;;;;;;5034239;28;20051;-65
2022/04/19 02:37:58;;;;;;;12.57;7.60;;;4.70;76.20;;;;;;5042217;28;20049;-65
2022/04/19 02:40:25;;;;;;;12.32;7.93;;;4.80;76.70;;;;;;5041060;28;20060;-66
2022/04/19 02:42:54;;;;;;;15.18;8.88;;;4.70;76.80;;;;;;5033237;28;20071;-66
2022/04/19 02:45:23;;;;;;;17.13;9.32;;;4.70;77.20;;;;;;5042042;28;20036;-64
2022/04/19 02:48:04;;;;;;;13.90;8.73;;;4.70;77.50;;;;;;5034346;28;20037;-65
2022/04/19 02:50:33;;;;;;;13.48;9.02;;;4.60;77.60;;;;;;5035983;28;20562;-64
2022/04/19 02:52:59;;;;;;;13.88;7.85;;;4.70;77.50;;;;;;5037353;28;20497;-65
2022/04/19 02:55:24;;;;;;;13.88;8.48;;;4.60;77.00;;;;;;5034451;28;20049;-66
2022/04/19 02:57:50;;;;;;;13.55;8.20;;;4.60;77.20;;;;;;5042049;28;20412;-64
2022/04/19 03:00:16;;;;;;;14.43;9.25;;;4.50;77.50;;;;;;5043967;28;20506;-65
2022/04/19 03:02:41;;;;;;;14.65;8.98;;;4.50;77.70;;;;;;5040368;28;20044;-64
2022/04/19 03:05:08;;;;;;;12.43;9.00;;;4.50;77.90;;;;;;5041927;28;20507;-66
2022/04/19 03:07:33;;;;;;;12.48;8.63;;;4.60;78.00;;;;;;5043916;28;20037;-65
2022/04/19 03:09:59;;;;;;;13.35;8.30;;;4.50;78.00;;;;;;5040993;28;20488;-64
2022/04/19 03:12:24;;;;;;;14.18;8.63;;;4.50;78.30;;;;;;5038677;28;20055;-66
2022/04/19 03:14:50;;;;;;;13.18;8.77;;;4.40;78.10;;;;;;5038383;28;20057;-65
2022/04/19 03:17:15;;;;;;;12.18;7.97;;;4.40;78.40;;;;;;5040245;28;20037;-64
2022/04/19 03:19:41;;;;;;;12.13;7.88;;;4.30;78.80;;;;;;5041980;28;20108;-65
2022/04/19 03:22:06;;;;;;;24.23;9.52;;;4.30;78.80;;;;;;5041151;28;20037;-66
2022/04/19 03:30:00;;;;;;;16.38;9.70;;;4.20;79.30;;;;;;5035589;28;20059;-66
2022/04/19 03:32:26;;;;;;;19.45;10.48;;;4.20;78.80;;;;;;5035696;28;20434;-65
2022/04/19 03:34:51;;;;;;;14.98;10.05;;;4.30;79.20;;;;;;5030384;28;20049;-65
2022/04/19 03:37:19;;;;;;;14.50;9.60;;;4.20;79.00;;;;;;5051734;28;20033;-64
2022/04/19 03:39:44;;;;;;;15.32;9.88;;;4.20;79.10;;;;;;5037654;28;20037;-64
2022/04/19 03:42:10;;;;;;;16.80;9.93;;;4.20;79.20;;;;;;5023845;28;20128;-66
2022/04/19 03:44:35;;;;;;;16.70;10.32;;;4.30;79.30;;;;;;5043563;28;20409;-64
2022/04/19 03:47:07;;;;;;;15.70;10.02;;;4.20;79.40;;;;;;5046418;28;20044;-65
2022/04/19 03:49:36;;;;;;;16.35;9.80;;;4.20;79.30;;;;;;5041668;28;20068;-64
2022/04/19 03:52:03;;;;;;;15.52;10.60;;;4.20;79.90;;;;;;5047720;28;20071;-64
2022/04/19 03:54:28;;;;;;;17.40;10.00;;;4.10;79.60;;;;;;5033218;28;20393;-65
2022/04/19 03:56:54;;;;;;;22.40;10.55;;;4.10;79.80;;;;;;5043688;28;20045;-64
2022/04/19 03:59:19;;;;;;;16.45;9.63;;;4.00;79.90;;;;;;5038387;28;20029;-64
2022/04/19 04:01:45;;;;;;;14.85;9.50;;;4.00;80.10;;;;;;5031208;28;20381;-64
2022/04/19 04:04:11;;;;;;;21.13;10.52;;;4.00;80.00;;;;;;5042218;28;20033;-65
2022/04/19 04:06:37;;;;;;;18.17;10.45;;;4.00;80.50;;;;;;5040491;28;20130;-65
2022/04/19 04:09:04;;;;;;;18.95;11.45;;;4.00;80.50;;;;;;5042137;28;20064;-65
2022/04/19 04:11:29;;;;;;;17.65;10.52;;;4.00;80.60;;;;;;5040233;28;20116;-64
2022/04/19 04:13:55;;;;;;;16.25;10.18;;;3.90;80.90;;;;;;5038806;28;20144;-64
2022/04/19 04:16:22;;;;;;;17.55;10.85;;;4.00;81.00;;;;;;5017301;28;20681;-65
2022/04/19 04:18:47;;;;;;;17.92;11.00;;;3.90;81.00;;;;;;5031465;28;20052;-65
2022/04/19 04:21:13;;;;;;;18.65;10.55;;;3.90;80.90;;;;;;5039189;28;20037;-64
2022/04/19 04:23:38;;;;;;;15.85;9.90;;;3.90;81.20;;;;;;5035693;28;20033;-64
2022/04/19 04:26:04;;;;;;;16.73;9.57;;;3.70;80.90;;;;;;5038934;28;20039;-65
2022/04/19 04:28:29;;;;;;;16.35;9.82;;;3.70;80.80;;;;;;5040582;28;20041;-64
2022/04/19 04:30:55;;;;;;;17.02;10.55;;;3.70;81.10;;;;;;5039775;28;20039;-64
2022/04/19 04:33:21;;;;;;;17.95;10.50;;;3.70;81.60;;;;;;5040079;28;20046;-64
2022/04/19 04:35:47;;;;;;;15.05;9.40;;;3.70;81.40;;;;;;5043113;28;20049;-65
2022/04/19 04:38:13;;;;;;;18.70;10.23;;;3.60;81.30;;;;;;5044472;28;20477;-66
2022/04/19 04:40:39;;;;;;;18.67;10.98;;;3.60;81.50;;;;;;5041557;28;20038;-65
2022/04/19 04:43:04;;;;;;;21.70;11.50;;;3.60;81.70;;;;;;5019316;28;20530;-64
2022/04/19 04:45:30;;;;;;;21.00;10.25;;;3.60;81.80;;;;;;5036748;28;20041;-65
2022/04/19 04:50:39;;;;;;;21.38;11.18;;;3.60;81.80;;;;;;5039844;28;20048;-66
2022/04/19 04:53:05;;;;;;;18.92;10.52;;;3.60;81.90;;;;;;5037627;28;21432;-64
2022/04/19 04:55:31;;;;;;;16.42;10.43;;;3.70;82.40;;;;;;5039609;28;20041;-65
2022/04/19 04:57:59;;;;;;;16.15;10.82;;;3.70;82.20;;;;;;5038139;28;20037;-65
2022/04/19 05:00:28;;;;;;;19.05;10.30;;;3.80;82.20;;;;;;5037615;28;20047;-64
2022/04/19 05:02:54;;;;;;;22.30;11.80;;;3.80;82.30;;;;;;5036771;28;20465;-65
2022/04/19 05:05:20;;;;;;;19.80;11.82;;;3.80;82.30;;;;;;5036906;28;20593;-66
2022/04/19 05:07:46;;;;;;;21.23;11.75;;;3.90;82.80;;;;;;5040240;28;20072;-65
2022/04/19 05:10:12;;;;;;;18.52;11.20;;;3.80;82.70;;;;;;5041253;28;20041;-64
2022/04/19 05:12:38;;;;;;;20.60;10.88;;;3.90;83.40;;;;;;5022003;28;20044;-66
2022/04/19 05:15:04;;;;;;;18.20;11.00;;;3.90;82.90;;;;;;5041682;28;20045;-65
2022/04/19 05:17:30;;;;;;;19.95;11.15;;;4.00;82.80;;;;;;5037958;28;20060;-65
2022/04/19 05:19:56;;;;;;;19.05;11.05;;;4.10;83.00;;;;;;5021927;28;20069;-65
2022/04/19 05:22:22;;;;;;;20.85;11.75;;;4.10;83.00;;;;;;5041060;28;20044;-66
2022/04/19 05:24:48;;;;;;;19.42;11.10;;;4.20;83.10;;;;;;5042101;28;20048;-65
2022/04/19 05:27:14;;;;;;;21.40;11.45;;;4.30;83.10;;;;;;5020560;28;20514;-65
2022/04/19 05:29:39;;;;;;;18.80;11.15;;;4.30;83.20;;;;;;5038389;28;20041;-65
2022/04/19 05:32:05;;;;;;;19.65;11.13;;;4.40;83.20;;;;;;5034132;28;20049;-65
2022/04/19 05:34:31;;;;;;;21.80;11.32;;;4.50;83.20;;;;;;5038074;28;20515;-66
2022/04/19 05:36:57;;;;;;;18.48;10.90;;;4.70;83.40;;;;;;5025180;28;20346;-65
2022/04/19 05:39:23;;;;;;;23.70;11.40;;;4.80;83.30;;;;;;5044086;28;20053;-66
2022/04/19 05:41:48;;;;;;;17.98;10.48;;;4.90;83.10;;;;;;5047532;28;20443;-66
2022/04/19 05:44:14;;;;;;;19.75;11.32;;;5.00;83.00;;;;;;5040613;28;20038;-65
2022/04/19 05:46:40;;;;;;;21.30;10.90;;;5.10;83.00;;;;;;5045216;28;20512;-66
2022/04/19 05:49:05;;;;;;;17.60;10.20;;;5.30;82.80;;;;;;5038733;28;20056;-65
2022/04/19 05:51:34;;;;;;;17.80;9.88;;;5.40;82.40;;;;;;5041601;28;20056;-65
2022/04/19 05:54:00;;;;;;;23.40;11.57;;;5.60;82.50;;;;;;5042161;28;20539;-65
2022/04/19 05:56:26;;;;;;;20.45;10.65;;;5.70;82.10;;;;;;5029739;28;20049;-64
2022/04/19 05:58:52;;;;;;;18.83;10.20;;;5.80;82.00;;;;;;5039060;28;20040;-66
2022/04/19 06:01:18;;;;;;;17.10;10.30;;;6.00;82.00;;;;;;5046381;28;20044;-64
2022/04/19 06:06:28;;;;;;;18.67;10.10;;;6.20;81.40;;;;;;5039357;28;20053;-64
2022/04/19 06:08:54;;;;;;;16.40;9.57;;;6.50;81.20;;;;;;5037857;28;20132;-65
2022/04/19 06:11:19;;;;;;;15.77;9.38;;;6.70;80.90;;;;;;5039688;28;20037;-65
2022/04/19 06:13:45;;;;;;;18.35;10.30;;;7.00;80.70;;;;;;5036617;28;20075;-66
2022/04/19 06:16:11;;;;;;;17.30;10.55;;;7.20;80.80;;;;;;5056109;28;20049;-65
2022/04/19 06:18:37;;;;;;;18.52;9.88;;;7.50;81.10;;;;;;5038975;28;20052;-66
2022/04/19 06:21:04;;;;;;;17.38;10.02;;;7.70;81.40;;;;;;5039780;28;20469;-66
2022/04/19 06:23:31;;;;;;;18.40;10.50;;;8.10;82.00;;;;;;5023860;28;20037;-66
2022/04/19 06:25:56;;;;;;;16.20;9.98;;;8.40;82.20;;;;;;5036312;28;20749;-65
2022/04/19 06:28:22;;;;;;;18.25;9.48;;;8.70;81.70;;;;;;5037332;28;20048;-65
2022/04/19 06:30:48;;;;;;;12.52;8.88;;;9.10;81.70;;;;;;5034482;28;20729;-66
2022/04/19 06:33:13;;;;;;;16.23;9.77;;;9.40;80.10;;;;;;5045903;28;20037;-65
2022/04/19 06:35:39;;;;;;;12.75;8.93;;;9.70;79.40;;;;;;5051471;28;20124;-66
2022/04/19 06:38:05;;;;;;;15.10;9.30;;;10.00;78.40;;;;;;5045366;28;20124;-66
2022/04/19 06:40:30;;;;;;;12.63;8.55;;;10.30;78.10;;;;;;5043537;28;20041;-66
2022/04/19 06:42:57;;;;;;;12.45;8.55;;;10.60;77.00;;;;;;5032147;28;20033;-66
2022/04/19 06:45:23;;;;;;;13.82;9.02;;;10.90;76.50;;;;;;5038575;28;20408;-66
2022/04/19 06:47:56;;;;;;;13.30;8.20;;;11.20;74.20;;;;;;5048606;28;20100;-65
2022/04/19 06:50:23;;;;;;;11.82;8.38;;;11.40;71.90;;;;;;5026141;28;20119;-66
2022/04/19 06:52:48;;;;;;;11.43;7.72;;;11.60;72.50;;;;;;5040149;28;20068;-66
2022/04/19 06:55:14;;;;;;;13.38;7.63;;;11.80;71.20;;;;;;5037071;28;20473;-65
2022/04/19 06:57:41;;;;;;;11.07;7.78;;;12.00;69.90;;;;;;5035655;28;20044;-67
2022/04/19 07:00:07;;;;;;;13.32;8.35;;;12.20;70.00;;;;;;5028617;28;20049;-67
2022/04/19 07:02:33;;;;;;;13.35;8.25;;;12.40;69.10;;;;;;5029240;28;20075;-68
2022/04/19 07:04:59;;;;;;;12.63;8.02;;;12.60;68.20;;;;;;5021918;28;20128;-67
2022/04/19 07:07:25;;;;;;;11.95;7.72;;;12.80;67.00;;;;;;5030474;28;20083;-66
2022/04/19 07:09:51;;;;;;;10.77;6.88;;;13.10;67.10;;;;;;5057518;28;20045;-67
2022/04/19 07:12:19;;;;;;;9.77;6.85;;;13.30;65.90;;;;;;5041261;28;20536;-68
2022/04/19 07:14:44;;;;;;;13.15;7.15;;;13.50;64.00;;;;;;5034624;28;20084;-67
2022/04/19 07:17:10;;;;;;;10.88;6.72;;;13.60;64.20;;;;;;5026503;28;20068;-67
2022/04/19 07:27:48;;;;;;;11.93;7.65;;;14.60;62.60;;;;;;5028918;28;20087;-68
2022/04/19 07:30:16;;;;;;;10.15;7.15;;;14.80;61.70;;;;;;5045918;28;20481;-67
2022/04/19 07:32:42;;;;;;;9.55;6.22;;;14.80;59.90;;;;;;5036124;28;20037;-68
2022/04/19 07:35:08;;;;;;;11.00;6.53;;;15.00;59.00;;;;;;5050718;28;20441;-68
2022/04/19 07:37:34;;;;;;;9.65;6.85;;;15.10;59.20;;;;;;5044794;28;20067;-69
2022/04/19 07:39:59;;;;;;;11.07;7.13;;;15.30;58.70;;;;;;5045363;28;20045;-69
2022/04/19 07:42:25;;;;;;;9.45;6.28;;;15.60;58.80;;;;;;5049211;28;20060;-70
2022/04/19 07:44:50;;;;;;;12.38;6.05;;;15.80;58.00;;;;;;5033444;28;20088;-68
2022/04/19 07:47:17;;;;;;;9.75;6.30;;;15.90;56.80;;;;;;5029966;28;20045;-69
2022/04/19 07:49:43;;;;;;;11.02;6.45;;;16.10;57.90;;;;;;5030558;28;20049;-67
2022/04/19 07:52:09;;;;;;;9.02;5.63;;;16.40;55.70;;;;;;5033557;28;20547;-69
2022/04/19 07:54:36;;;;;;;7.55;5.53;;;16.50;54.20;;;;;;5030284;28;20092;-71
2022/04/19 07:57:01;;;;;;;8.00;6.00;;;16.60;54.30;;;;;;5047102;28;20037;-69
2022/04/19 07:59:27;;;;;;;8.88;6.10;;;17.00;53.70;;;;;;5050314;28;20045;-71
2022/04/19 08:01:52;;;;;;;9.27;5.25;;;17.20;52.90;;;;;;5049518;28;20353;-68
2022/04/19 08:04:18;;;;;;;8.18;5.15;;;17.60;52.50;;;;;;5036343;28;20453;-68
2022/04/19 08:06:44;;;;;;;7.53;4.85;;;17.60;50.90;;;;;;5035381;28;20033;-69
2022/04/19 08:09:09;;;;;;;8.00;5.45;;;17.50;49.60;;;;;;5035065;28;20134;-68
2022/04/19 08:11:35;;;;;;;7.22;5.30;;;17.60;49.10;;;;;;5030445;28;20560;-66
2022/04/19 08:14:00;;;;;;;7.05;5.45;;;17.70;49.40;;;;;;5047071;28;20385;-67
2022/04/19 08:16:26;;;;;;;6.63;5.07;;;17.60;48.80;;;;;;5033465;28;20056;-68
2022/04/19 08:18:51;;;;;;;6.95;4.88;;;17.50;48.80;;;;;;5032002;28;20036;-68
2022/04/19 08:21:17;;;;;;;6.63;4.88;;;17.40;48.50;;;;;;5044285;28;20053;-66
2022/04/19 08:23:42;;;;;;;6.28;4.50;;;17.30;47.30;;;;;;5032441;28;20029;-66
2022/04/19 08:26:08;;;;;;;8.90;5.03;;;17.30;47.00;;;;;;5043093;28;20102;-67
2022/04/19 08:28:34;;;;;;;6.57;4.07;;;17.40;46.10;;;;;;5038443;28;20124;-66
2022/04/19 08:30:59;;;;;;;6.13;3.67;;;17.60;44.90;;;;;;5040823;28;20776;-67
2022/04/19 08:33:25;;;;;;;5.50;3.28;;;17.60;43.30;;;;;;5043188;28;20504;-66
2022/04/19 08:35:50;;;;;;;5.32;3.05;;;17.70;43.00;;;;;;5051922;28;20045;-67
2022/04/19 08:38:16;;;;;;;3.88;2.95;;;17.80;41.50;;;;;;5039656;28;20444;-68
2022/04/19 08:40:41;;;;;;;4.55;3.03;;;17.70;40.40;;;;;;5014873;28;20041;-68
2022/04/19 08:43:07;;;;;;;3.28;2.72;;;17.50;39.70;;;;;;5007146;28;20045;-67
2022/04/19 08:45:33;;;;;;;4.43;2.28;;;17.90;39.10;;;;;;5041258;28;20461;-67
2022/04/19 08:48:00;;;;;;;3.92;2.20;;;18.00;39.10;;;;;;5025733;28;20052;-67
2022/04/19 08:50:28;;;;;;;4.47;2.20;;;18.80;37.50;;;;;;5045469;28;20045;-66
2022/04/19 08:58:22;;;;;;;4.05;1.88;;;19.40;36.10;;;;;;5041624;28;20110;-68
2022/04/19 09:00:47;;;;;;;2.78;1.80;;;19.70;35.10;;;;;;5051107;28;20041;-69
2022/04/19 09:03:13;;;;;;;3.78;1.95;;;19.90;34.30;;;;;;5034406;28;20599;-68
2022/04/19 09:05:49;;;;;;;2.72;1.70;;;20.10;34.10;;;;;;5040425;28;20056;-67
2022/04/19 09:08:15;;;;;;;2.47;1.77;;;20.50;33.20;;;;;;5062735;28;20040;-67
2022/04/19 09:10:41;;;;;;;2.33;1.67;;;20.70;33.50;;;;;;5050026;28;20071;-67
2022/04/19 09:13:17;;;;;;;2.63;1.75;;;21.20;33.00;;;;;;5045359;28;20036;-67
2022/04/19 09:15:45;;;;;;;3.85;1.90;;;21.40;31.80;;;;;;5042881;28;20533;-66
2022/04/19 09:18:31;;;;;;;1.98;1.50;;;21.40;31.90;;;;;;5043851;28;20033;-66
2022/04/19 09:20:59;;;;;;;2.85;2.30;;;21.30;29.60;;;;;;5033013;28;20049;-67
2022/04/19 09:23:25;;;;;;;2.70;1.88;;;20.60;31.80;;;;;;5034157;28;20083;-66
2022/04/19 09:25:56;;;;;;;2.95;1.92;;;19.70;33.50;;;;;;5041035;28;20040;-66
2022/04/19 09:28:23;;;;;;;2.25;1.58;;;19.40;33.80;;;;;;5052862;28;20388;-66
2022/04/19 09:30:51;;;;;;;3.38;2.28;;;18.90;35.30;;;;;;5050248;28;20668;-67
2022/04/19 09:33:18;;;;;;;1.80;1.40;;;18.80;36.00;;;;;;5045046;28;20029;-67
2022/04/19 09:35:55;;;;;;;2.83;2.13;;;18.80;35.40;;;;;;5042938;28;20059;-66
2022/04/19 09:38:38;;;;;;;3.97;1.75;;;18.60;36.20;;;;;;5017746;28;20202;-65
2022/04/19 09:41:09;;;;;;;4.25;2.10;;;19.30;33.60;;;;;;5039682;28;20060;-65
2022/04/19 09:43:35;;;;;;;2.75;1.65;;;20.10;33.70;;;;;;5037332;28;20045;-66
2022/04/19 09:46:03;;;;;;;3.08;2.30;;;20.70;32.70;;;;;;5044162;28;20754;-65
2022/04/19 09:48:39;;;;;;;4.38;1.80;;;20.40;31.40;;;;;;5046612;28;20165;-66
2022/04/19 09:51:10;;;;;;;2.20;2.00;;;20.10;31.70;;;;;;5047341;28;20043;-67
2022/04/19 09:53:46;;;;;;;3.10;1.63;;;19.50;32.60;;;;;;5038968;28;20061;-68
2022/04/19 09:56:13;;;;;;;4.30;2.00;;;19.30;34.40;;;;;;5044795;28;20699;-66
2022/04/19 09:58:41;;;;;;;3.45;2.05;;;18.80;34.10;;;;;;5044856;28;21085;-67
2022/04/19 10:01:07;;;;;;;9.13;2.38;;;19.10;33.00;;;;;;5048825;28;20029;-66
2022/04/19 10:09:04;;;;;;;2.97;2.10;;;21.60;30.00;;;;;;5039543;28;20147;-65
2022/04/19 10:11:30;;;;;;;2.15;1.95;;;22.40;30.20;;;;;;5047565;28;20137;-66
2022/04/19 10:13:57;;;;;;;4.45;2.00;;;22.60;29.60;;;;;;5034799;28;20119;-66
2022/04/19 10:16:23;;;;;;;5.28;2.83;;;22.90;29.40;;;;;;5043341;28;20563;-68
2022/04/19 10:18:49;;;;;;;4.90;2.38;;;22.60;29.40;;;;;;5047348;28;20037;-67
2022/04/19 10:21:20;;;;;;;3.83;2.78;;;23.00;29.80;;;;;;5042914;28;20037;-65
2022/04/19 10:23:46;;;;;;;4.85;2.40;;;22.90;29.90;;;;;;5039698;28;20445;-66
2022/04/19 10:26:23;;;;;;;4.75;2.42;;;22.90;30.00;;;;;;5036959;28;20064;-66
2022/04/19 10:28:51;;;;;;;4.85;2.08;;;22.20;30.70;;;;;;5041905;28;20041;-66
2022/04/19 10:31:34;;;;;;;3.42;2.55;;;22.50;31.10;;;;;;5034705;28;20041;-68
2022/04/19 10:34:05;;;;;;;2.58;2.38;;;22.20;28.90;;;;;;5041152;28;20531;-68
2022/04/19 10:36:37;;;;;;;2.25;2.05;;;21.50;30.20;;;;;;5043234;28;20048;-66
2022/04/19 10:39:11;;;;;;;3.58;2.60;;;20.90;31.40;;;;;;5048756;28;20785;-66
2022/04/19 10:41:56;;;;;;;3.67;2.42;;;20.70;32.20;;;;;;5024516;28;20090;-68
2022/04/19 10:44:26;;;;;;;4.15;2.40;;;20.50;32.80;;;;;;5026242;28;20029;-68
2022/04/19 10:47:12;;;;;;;5.63;2.50;;;20.00;33.00;;;;;;5047283;28;20047;-65
2022/04/19 10:49:50;;;;;;;4.00;2.90;;;19.20;33.50;;;;;;5047392;28;20078;-66
2022/04/19 10:52:38;;;;;;;5.28;3.03;;;18.50;35.80;;;;;;5028460;28;20072;-69
2022/04/19 10:55:21;;;;;;;4.70;2.97;;;17.80;36.90;;;;;;5037187;28;20053;-68
2022/04/19 10:58:06;;;;;;;5.10;2.97;;;17.60;37.70;;;;;;5048433;28;20085;-67
2022/04/19 11:00:37;;;;;;;4.28;2.50;;;17.70;38.30;;;;;;5048074;28;20120;-67
2022/04/19 11:03:11;;;;;;;2.95;2.35;;;17.60;38.00;;;;;;5037543;28;20369;-69
2022/04/19 11:05:45;;;;;;;5.28;2.85;;;17.50;38.00;;;;;;5048284;28;20484;-69
2022/04/19 11:08:26;;;;;;;5.75;2.60;;;17.20;37.90;;;;;;5038057;28;20055;-69
2022/04/19 11:10:51;;;;;;;3.42;2.85;;;17.20;38.80;;;;;;5038799;28;20083;-70
2022/04/19 11:13:19;;;;;;;4.25;3.03;;;17.00;39.20;;;;;;5037191;28;20416;-67
2022/04/19 11:15:59;;;;;;;3.90;3.47;;;17.10;39.70;;;;;;5043931;28;20424;-67
2022/04/19 11:18:27;;;;;;;6.78;3.05;;;16.90;38.70;;;;;;5048569;28;20127;-67
2022/04/19 11:20:57;;;;;;;5.65;3.00;;;17.00;39.40;;;;;;5046956;28;20494;-68
2022/04/19 11:23:24;;;;;;;;;;;17.10;39.70;;;;;;5045915;28;20033;-69
2022/04/19 11:25:51;;;;;;;9.30;2.63;;;17.10;41.40;;;;;;5031137;28;19979;-70
2022/04/19 11:28:21;;;;;;;6.20;3.15;;;17.30;39.70;;;;;;5048631;28;20053;-70
2022/04/19 11:30:49;;;;;;;4.25;3.00;;;17.40;40.20;;;;;;5033099;28;20474;-67
2022/04/19 11:33:23;;;;;;;4.45;3.20;;;17.50;40.70;;;;;;5034687;28;20045;-68
2022/04/19 11:36:06;;;;;;;5.07;3.30;;;17.30;39.80;;;;;;5016061;28;20044;-66
2022/04/19 11:38:46;;;;;;;5.60;3.33;;;17.30;39.80;;;;;;5030950;28;20538;-67
2022/04/19 11:46:45;;;;;;;3.60;3.10;;;17.40;40.20;;;;;;5040238;28;20151;-69
2022/04/19 11:49:23;;;;;;;5.03;3.00;;;17.20;39.50;;;;;;5034757;28;20037;-67
2022/04/19 11:51:51;;;;;;;4.35;3.10;;;17.20;39.40;;;;;;5030150;28;20088;-69
2022/04/19 11:54:25;;;;;;;4.78;2.83;;;17.10;39.90;;;;;;5038283;28;20045;-68
2022/04/19 11:56:57;;;;;;;4.43;2.53;;;17.00;39.50;;;;;;5029828;28;20079;-67
2022/04/19 11:59:31;;;;;;;4.55;2.67;;;17.10;38.80;;;;;;5044067;28;20033;-68
2022/04/19 12:01:58;;;;;;;3.10;2.60;;;17.10;40.30;;;;;;5037481;28;20041;-67
2022/04/19 12:04:24;;;;;;;3.65;2.13;;;17.00;38.60;;;;;;5048511;28;20155;-68
2022/04/19 12:07:01;;;;;;;4.72;2.30;;;17.30;39.10;;;;;;5039260;28;20041;-67
2022/04/19 12:09:28;;;;;;;2.67;2.22;;;17.40;40.10;;;;;;5041622;28;20128;-68
2022/04/19 12:11:54;;;;;;;6.85;2.50;;;17.70;39.80;;;;;;5046115;28;20379;-69
2022/04/19 12:14:23;;;;;;;6.70;2.72;;;17.40;38.60;;;;;;5032052;28;20420;-67
2022/04/19 12:16:55;;;;;;;6.18;2.47;;;17.40;38.70;;;;;;5050293;28;20091;-67
2022/04/19 12:19:35;;;;;;;4.32;2.38;;;17.50;39.30;;;;;;5020720;28;20037;-67
2022/04/19 12:22:02;;;;;;;5.22;2.40;;;17.70;38.80;;;;;;5038825;28;20091;-68
2022/04/19 12:24:28;;;;;;;3.22;2.20;;;17.60;38.40;;;;;;5019630;28;20185;-67
2022/04/19 12:27:06;;;;;;;4.45;2.67;;;17.80;38.20;;;;;;5035299;28;20063;-66
2022/04/19 12:29:35;;;;;;;3.53;2.33;;;17.90;39.20;;;;;;5048862;28;20772;-68
2022/04/19 12:32:03;;;;;;;3.20;2.03;;;18.10;38.80;;;;;;5049814;28;20125;-67
2022/04/19 12:34:36;;;;;;;3.35;2.08;;;18.60;38.30;;;;;;5019313;28;20291;-67
2022/04/19 12:37:12;;;;;;;5.68;2.20;;;18.60;36.80;;;;;;5042102;28;20037;-66
2022/04/19 12:39:37;;;;;;;3.28;2.28;;;18.70;38.20;;;;;;5041349;28;20049;-67
2022/04/19 12:42:07;;;;;;;3.90;2.10;;;19.10;37.70;;;;;;5040454;28;20251;-66
2022/04/19 12:44:35;;;;;;;2.10;1.70;;;19.40;37.50;;;;;;5041008;28;20478;-67
2022/04/19 12:47:02;;;;;;;4.18;2.85;;;20.70;35.70;;;;;;5056187;28;20529;-67
2022/04/19 12:49:30;;;;;;;3.13;2.60;;;21.50;34.40;;;;;;5040191;28;20047;-66
2022/04/19 12:52:06;;;;;;;3.40;2.38;;;21.90;32.90;;;;;;5034898;28;20128;-70
2022/04/19 12:54:34;;;;;;;4.78;2.90;;;22.10;32.40;;;;;;5047004;28;20493;-67
2022/04/19 12:57:01;;;;;;;5.38;2.17;;;22.50;31.60;;;;;;5037335;28;20463;-66
2022/04/19 12:59:31;;;;;;;5.45;2.30;;;22.40;31.40;;;;;;5066547;28;20036;-68
2022/04/19 13:01:58;;;;;;;6.15;2.60;;;23.70;31.40;;;;;;5029433;28;20520;-68
2022/04/19 13:04:24;;;;;;;3.75;2.75;;;24.10;30.60;;;;;;5037156;28;20033;-68
2022/04/19 13:12:24;;;;;;;4.05;2.58;;;25.90;28.30;;;;;;5048734;28;20064;-68
2022/04/19 13:14:52;;;;;;;3.55;2.53;;;26.80;27.40;;;;;;5041146;28;20045;-67
2022/04/19 13:17:19;;;;;;;3.90;3.17;;;27.70;27.10;;;;;;5025349;28;20117;-67
2022/04/19 13:19:47;;;;;;;4.78;2.88;;;27.90;26.40;;;;;;5045142;28;20055;-72
2022/04/19 13:22:13;;;;;;;5.15;3.25;;;28.20;26.50;;;;;;5054188;28;20037;-68
2022/04/19 13:24:39;;;;;;;5.57;2.78;;;28.40;26.40;;;;;;5042814;28;20087;-68
2022/04/19 13:27:12;;;;;;;3.55;2.83;;;28.30;25.80;;;;;;5026780;28;20029;-69
2022/04/19 13:29:39;;;;;;;3.75;2.80;;;28.50;24.70;;;;;;5041278;28;20079;-70
2022/04/19 13:32:06;;;;;;;4.22;3.03;;;28.30;25.70;;;;;;5038128;28;20097;-68